sensor_id;sensor_type;location;lat;lon;timestamp;P1;durP1;ratioP1;P2;durP2;ratioP2
22679;SDS011;11507;44.858;10.374;2023-02-01T00:02:00;62.47;;;30.10;;
22679;SDS011;11507;44.858;10.374;2023-02-01T00:04:26;62.95;;;30.33;;
22679;SDS011;11507;44.858;10.374;2023-02-01T00:09:18;61.88;;;30.08;;
22679;SDS011;11507;44.858;10.374;2023-02-01T00:11:44;59.65;;;29.80;;
22679;SDS011;11507;44.858;10.374;2023-02-01T00:16:36;53.15;;;27.75;;
22679;SDS011;11507;44.858;10.374;2023-02-01T00:19:12;63.95;;;29.42;;
22679;SDS011;11507;44.858;10.374;2023-02-01T00:21:40;58.83;;;29.27;;
22679;SDS011;11507;44.858;10.374;2023-02-01T00:24:08;59.40;;;29.25;;
22679;SDS011;11507;44.858;10.374;2023-02-01T00:29:03;55.55;;;28.83;;
22679;SDS011;11507;44.858;10.374;2023-02-01T00:31:35;60.17;;;29.75;;
22679;SDS011;11507;44.858;10.374;2023-02-01T00:34:01;55.95;;;27.92;;
22679;SDS011;11507;44.858;10.374;2023-02-01T00:36:27;51.35;;;26.52;;
22679;SDS011;11507;44.858;10.374;2023-02-01T00:38:55;45.97;;;25.85;;
22679;SDS011;11507;44.858;10.374;2023-02-01T00:41:21;49.83;;;26.25;;
22679;SDS011;11507;44.858;10.374;2023-02-01T00:43:48;52.85;;;25.80;;
22679;SDS011;11507;44.858;10.374;2023-02-01T00:46:16;51.70;;;25.75;;
22679;SDS011;11507;44.858;10.374;2023-02-01T00:48:44;51.90;;;23.58;;
22679;SDS011;11507;44.858;10.374;2023-02-01T00:51:12;48.10;;;23.58;;
22679;SDS011;11507;44.858;10.374;2023-02-01T00:53:40;49.15;;;23.98;;
22679;SDS011;11507;44.858;10.374;2023-02-01T00:56:06;42.10;;;20.58;;
22679;SDS011;11507;44.858;10.374;2023-02-01T00:58:33;44.80;;;21.08;;
22679;SDS011;11507;44.858;10.374;2023-02-01T01:01:19;44.17;;;22.15;;
22679;SDS011;11507;44.858;10.374;2023-02-01T01:06:22;46.17;;;20.33;;
22679;SDS011;11507;44.858;10.374;2023-02-01T01:08:53;40.00;;;19.73;;
22679;SDS011;11507;44.858;10.374;2023-02-01T01:11:24;48.53;;;21.75;;
22679;SDS011;11507;44.858;10.374;2023-02-01T01:13:52;40.90;;;20.23;;
22679;SDS011;11507;44.858;10.374;2023-02-01T01:16:21;43.42;;;19.95;;
22679;SDS011;11507;44.858;10.374;2023-02-01T01:18:48;41.17;;;20.73;;
22679;SDS011;11507;44.858;10.374;2023-02-01T01:21:15;37.08;;;19.35;;
22679;SDS011;11507;44.858;10.374;2023-02-01T01:23:42;35.38;;;18.40;;
22679;SDS011;11507;44.858;10.374;2023-02-01T01:26:09;36.63;;;19.45;;
22679;SDS011;11507;44.858;10.374;2023-02-01T01:28:40;38.65;;;18.80;;
22679;SDS011;11507;44.858;10.374;2023-02-01T01:33:36;33.47;;;17.05;;
22679;SDS011;11507;44.858;10.374;2023-02-01T01:36:06;36.30;;;18.70;;
22679;SDS011;11507;44.858;10.374;2023-02-01T01:38:36;34.60;;;17.58;;
22679;SDS011;11507;44.858;10.374;2023-02-01T01:41:03;34.53;;;18.55;;
22679;SDS011;11507;44.858;10.374;2023-02-01T01:46:22;36.58;;;18.15;;
22679;SDS011;11507;44.858;10.374;2023-02-01T01:49:13;36.88;;;18.52;;
22679;SDS011;11507;44.858;10.374;2023-02-01T01:51:51;38.03;;;18.63;;
22679;SDS011;11507;44.858;10.374;2023-02-01T01:54:25;36.72;;;18.50;;
22679;SDS011;11507;44.858;10.374;2023-02-01T01:56:57;35.58;;;17.95;;
22679;SDS011;11507;44.858;10.374;2023-02-01T01:59:26;37.22;;;18.63;;
22679;SDS011;11507;44.858;10.374;2023-02-01T02:01:52;38.30;;;18.63;;
22679;SDS011;11507;44.858;10.374;2023-02-01T02:06:46;34.67;;;17.35;;
22679;SDS011;11507;44.858;10.374;2023-02-01T02:09:26;39.70;;;19.25;;
22679;SDS011;11507;44.858;10.374;2023-02-01T02:14:18;41.40;;;20.55;;
22679;SDS011;11507;44.858;10.374;2023-02-01T02:31:34;39.28;;;19.75;;
22679;SDS011;11507;44.858;10.374;2023-02-01T02:42:12;36.97;;;19.13;;
22679;SDS011;11507;44.858;10.374;2023-02-01T02:45:10;38.53;;;18.33;;
22679;SDS011;11507;44.858;10.374;2023-02-01T02:48:12;37.72;;;19.10;;
22679;SDS011;11507;44.858;10.374;2023-02-01T02:50:57;41.67;;;18.75;;
22679;SDS011;11507;44.858;10.374;2023-02-01T02:53:48;44.50;;;20.85;;
22679;SDS011;11507;44.858;10.374;2023-02-01T02:56:44;42.15;;;21.30;;
22679;SDS011;11507;44.858;10.374;2023-02-01T02:59:28;47.67;;;21.95;;
22679;SDS011;11507;44.858;10.374;2023-02-01T03:02:15;46.40;;;21.83;;
22679;SDS011;11507;44.858;10.374;2023-02-01T03:05:00;48.60;;;21.48;;
22679;SDS011;11507;44.858;10.374;2023-02-01T03:10:16;46.65;;;22.50;;
22679;SDS011;11507;44.858;10.374;2023-02-01T03:13:15;52.60;;;24.38;;
22679;SDS011;11507;44.858;10.374;2023-02-01T03:19:00;42.80;;;20.60;;
22679;SDS011;11507;44.858;10.374;2023-02-01T03:21:48;39.38;;;19.50;;
22679;SDS011;11507;44.858;10.374;2023-02-01T03:27:01;32.13;;;16.10;;
22679;SDS011;11507;44.858;10.374;2023-02-01T03:29:48;34.97;;;15.25;;
22679;SDS011;11507;44.858;10.374;2023-02-01T03:32:26;31.63;;;15.02;;
22679;SDS011;11507;44.858;10.374;2023-02-01T03:34:53;26.35;;;13.40;;
22679;SDS011;11507;44.858;10.374;2023-02-01T03:37:24;29.17;;;13.45;;
22679;SDS011;11507;44.858;10.374;2023-02-01T03:40:06;26.25;;;12.98;;
22679;SDS011;11507;44.858;10.374;2023-02-01T03:42:38;25.75;;;12.15;;
22679;SDS011;11507;44.858;10.374;2023-02-01T03:45:14;26.67;;;12.60;;
22679;SDS011;11507;44.858;10.374;2023-02-01T03:47:49;22.67;;;11.57;;
22679;SDS011;11507;44.858;10.374;2023-02-01T03:50:19;21.90;;;10.82;;
22679;SDS011;11507;44.858;10.374;2023-02-01T03:52:52;23.67;;;10.50;;
22679;SDS011;11507;44.858;10.374;2023-02-01T03:55:22;18.75;;;9.98;;
22679;SDS011;11507;44.858;10.374;2023-02-01T03:57:51;22.77;;;11.43;;
22679;SDS011;11507;44.858;10.374;2023-02-01T04:00:39;20.52;;;10.65;;
22679;SDS011;11507;44.858;10.374;2023-02-01T04:03:06;24.73;;;10.93;;
22679;SDS011;11507;44.858;10.374;2023-02-01T04:05:33;23.45;;;11.13;;
22679;SDS011;11507;44.858;10.374;2023-02-01T04:08:03;21.73;;;10.48;;
22679;SDS011;11507;44.858;10.374;2023-02-01T04:10:30;21.77;;;10.07;;
22679;SDS011;11507;44.858;10.374;2023-02-01T04:17:49;20.63;;;10.13;;
22679;SDS011;11507;44.858;10.374;2023-02-01T04:20:15;27.15;;;10.88;;
22679;SDS011;11507;44.858;10.374;2023-02-01T04:22:41;20.58;;;10.82;;
22679;SDS011;11507;44.858;10.374;2023-02-01T04:25:07;20.33;;;10.30;;
22679;SDS011;11507;44.858;10.374;2023-02-01T04:27:34;22.23;;;10.63;;
22679;SDS011;11507;44.858;10.374;2023-02-01T04:30:00;22.00;;;10.07;;
22679;SDS011;11507;44.858;10.374;2023-02-01T04:32:26;27.70;;;12.52;;
22679;SDS011;11507;44.858;10.374;2023-02-01T04:37:17;34.10;;;15.13;;
22679;SDS011;11507;44.858;10.374;2023-02-01T04:42:09;33.95;;;14.30;;
22679;SDS011;11507;44.858;10.374;2023-02-01T04:44:35;30.00;;;14.15;;
22679;SDS011;11507;44.858;10.374;2023-02-01T04:47:06;29.25;;;14.20;;
22679;SDS011;11507;44.858;10.374;2023-02-01T04:49:32;31.75;;;14.18;;
22679;SDS011;11507;44.858;10.374;2023-02-01T04:51:59;32.15;;;14.30;;
22679;SDS011;11507;44.858;10.374;2023-02-01T04:54:25;29.85;;;14.18;;
22679;SDS011;11507;44.858;10.374;2023-02-01T04:59:17;31.55;;;14.38;;
22679;SDS011;11507;44.858;10.374;2023-02-01T05:04:09;34.97;;;14.35;;
22679;SDS011;11507;44.858;10.374;2023-02-01T05:09:02;29.98;;;13.70;;
22679;SDS011;11507;44.858;10.374;2023-02-01T05:14:12;28.25;;;13.93;;
22679;SDS011;11507;44.858;10.374;2023-02-01T05:16:38;27.08;;;13.63;;
22679;SDS011;11507;44.858;10.374;2023-02-01T05:21:29;29.58;;;13.98;;
